Time,TemperatureF,DewpointF,PressureIn,WindDirection,WindDirectionDegrees,WindSpeedMPH,WindSpeedGustMPH,Humidity,HourlyPrecipIn,Conditions,Clouds,dailyrainin,SoftwareType,DateUTC
2013-01-19 00:00:00,17.8,-3.5,30.35,NW,311,1.0,3.0,38,0.00,,---,0.00,VWS V14.01,2013-01-19 05:00:00,
2013-01-19 00:02:00,17.8,-3.5,30.35,NW,311,0.0,2.0,38,0.00,,---,0.00,VWS V14.01,2013-01-19 05:02:00,
2013-01-19 00:03:00,17.8,-3.5,30.35,NW,311,0.0,2.0,38,0.00,,---,0.00,VWS V14.01,2013-01-19 05:03:00,
2013-01-19 00:08:00,17.8,-3.5,30.35,NW,311,0.0,2.0,38,0.00,,---,0.00,VWS V14.01,2013-01-19 05:08:00,
2013-01-19 00:13:00,19.1,-2.3,30.35,West,271,0.0,7.0,38,0.00,,---,0.00,VWS V14.01,2013-01-19 05:13:00,
2013-01-19 00:18:00,19.4,-2.0,30.34,South,184,2.0,7.0,38,0.00,,---,0.00,VWS V14.01,2013-01-19 05:18:00,
2013-01-19 00:23:00,21.1,-0.5,30.34,SW,227,9.0,10.0,38,0.00,,---,0.00,VWS V14.01,2013-01-19 05:23:00,
2013-01-19 00:28:00,23.9,1.4,30.34,SW,224,10.0,10.0,37,0.00,,---,0.00,VWS V14.01,2013-01-19 05:28:00,
2013-01-19 00:30:00,17.7,-3.6,30.37,NW,311,0.0,2.0,38,0.00,,---,0.00,VWS V14.01,2013-01-19 05:30:00,
2013-01-19 00:33:00,26.3,3.0,30.33,SSW,212,9.0,12.0,36,0.00,,---,0.00,VWS V14.01,2013-01-19 05:33:00,
2013-01-19 00:38:00,27.6,4.2,30.33,SW,219,8.0,14.0,36,0.00,,---,0.00,VWS V14.01,2013-01-19 05:38:00,
2013-01-19 00:43:00,28.4,4.9,30.33,SW,223,2.0,14.0,36,0.00,,---,0.00,VWS V14.01,2013-01-19 05:43:00,
2013-01-19 00:48:00,28.7,5.1,30.32,SW,224,8.0,14.0,36,0.00,,---,0.00,VWS V14.01,2013-01-19 05:48:00,
2013-01-19 00:53:00,29.3,5.7,30.32,West,262,4.0,15.0,36,0.00,,---,0.00,VWS V14.01,2013-01-19 05:53:00,
2013-01-19 00:58:00,29.5,5.8,30.32,SSW,203,10.0,15.0,36,0.00,,---,0.00,VWS V14.01,2013-01-19 05:58:00,
2013-01-19 01:00:00,17.8,-3.5,30.35,NW,311,0.0,3.0,38,0.00,,---,0.00,VWS V14.01,2013-01-19 06:00:00,
2013-01-19 01:03:00,29.8,6.1,30.33,WSW,248,5.0,14.0,36,0.00,,---,0.00,VWS V14.01,2013-01-19 06:03:00,
2013-01-19 01:08:00,29.8,6.1,30.33,WSW,249,7.0,14.0,36,0.00,,---,0.00,VWS V14.01,2013-01-19 06:08:00,
2013-01-19 01:13:00,30.0,6.3,30.33,SW,222,2.0,14.0,36,0.00,,---,0.00,VWS V14.01,2013-01-19 06:13:00,
2013-01-19 01:18:00,30.0,6.3,30.32,WNW,290,4.0,14.0,36,0.00,,---,0.00,VWS V14.01,2013-01-19 06:18:00,
2013-01-19 01:23:00,30.0,6.3,30.32,WSW,240,9.0,14.0,36,0.00,,---,0.00,VWS V14.01,2013-01-19 06:23:00,
2013-01-19 01:28:00,30.0,6.3,30.32,SSW,207,4.0,14.0,36,0.00,,---,0.00,VWS V14.01,2013-01-19 06:28:00,
2013-01-19 01:30:00,25.6,2.4,30.33,SW,232,2.0,12.0,36,0.00,,---,0.00,VWS V14.01,2013-01-19 06:30:00,
2013-01-19 01:33:00,30.3,6.6,30.32,SSW,210,5.0,15.0,36,0.00,,---,0.00,VWS V14.01,2013-01-19 06:33:00,
2013-01-19 01:38:00,30.4,6.7,30.32,SSW,206,5.0,16.0,36,0.00,,---,0.00,VWS V14.01,2013-01-19 06:38:00,
2013-01-19 01:43:00,30.4,6.7,30.32,WSW,248,7.0,16.0,36,0.00,,---,0.00,VWS V14.01,2013-01-19 06:43:00,
2013-01-19 01:48:00,30.7,6.9,30.31,WSW,257,9.0,17.0,36,0.00,,---,0.00,VWS V14.01,2013-01-19 06:48:00,
2013-01-19 01:53:00,30.9,7.1,30.31,SW,224,5.0,17.0,36,0.00,,---,0.00,VWS V14.01,2013-01-19 06:53:00,
2013-01-19 01:58:00,31.0,7.2,30.31,SW,229,14.0,17.0,36,0.00,,---,0.00,VWS V14.01,2013-01-19 06:58:00,
2013-01-19 02:00:00,29.7,6.0,30.33,SW,215,5.0,15.0,36,0.00,,---,0.00,VWS V14.01,2013-01-19 07:00:00,
2013-01-19 02:03:00,31.3,7.5,30.31,WSW,254,8.0,13.0,36,0.00,,---,0.00,VWS V14.01,2013-01-19 07:03:00,
2013-01-19 02:08:00,31.3,7.5,30.31,SW,221,7.0,13.0,36,0.00,,---,0.00,VWS V14.01,2013-01-19 07:08:00,
2013-01-19 02:13:00,31.3,7.5,30.31,SW,229,3.0,13.0,36,0.00,,---,0.00,VWS V14.01,2013-01-19 07:13:00,
2013-01-19 02:18:00,31.6,7.7,30.31,WSW,239,2.0,19.0,36,0.00,,---,0.00,VWS V14.01,2013-01-19 07:18:00,
2013-01-19 02:23:00,31.6,7.7,30.31,SSW,212,0.0,19.0,36,0.00,,---,0.00,VWS V14.01,2013-01-19 07:23:00,
2013-01-19 02:28:00,31.6,7.7,30.31,SW,231,7.0,19.0,36,0.00,,---,0.00,VWS V14.01,2013-01-19 07:28:00,
2013-01-19 02:30:00,30.1,6.4,30.32,WSW,240,5.0,14.0,36,0.00,,---,0.00,VWS V14.01,2013-01-19 07:30:00,
2013-01-19 02:33:00,31.8,7.9,30.30,SW,229,1.0,5.0,36,0.00,,---,0.00,VWS V14.01,2013-01-19 07:33:00,
2013-01-19 02:38:00,31.8,7.9,30.30,SSW,205,5.0,12.0,36,0.00,,---,0.00,VWS V14.01,2013-01-19 07:38:00,
2013-01-19 02:43:00,31.8,7.9,30.30,SW,214,2.0,16.0,36,0.00,,---,0.00,VWS V14.01,2013-01-19 07:43:00,
2013-01-19 02:48:00,31.9,8.0,30.30,SW,223,6.0,16.0,36,0.00,,---,0.00,VWS V14.01,2013-01-19 07:48:00,
2013-01-19 02:53:00,32.1,8.2,30.30,SW,231,10.0,16.0,36,0.00,,---,0.00,VWS V14.01,2013-01-19 07:53:00,
2013-01-19 02:58:00,32.1,8.2,30.30,SW,219,4.0,16.0,36,0.00,,---,0.00,VWS V14.01,2013-01-19 07:58:00,
2013-01-19 03:00:00,31.2,7.4,30.31,South,184,9.0,17.0,36,0.00,,---,0.00,VWS V14.01,2013-01-19 08:00:00,
2013-01-19 03:03:00,32.1,8.2,30.29,SSW,194,6.0,10.0,36,0.00,,---,0.00,VWS V14.01,2013-01-19 08:03:00,
2013-01-19 03:08:00,32.1,8.2,30.29,SSW,205,2.0,13.0,36,0.00,,---,0.00,VWS V14.01,2013-01-19 08:08:00,
2013-01-19 03:13:00,32.1,8.2,30.29,SSW,192,10.0,14.0,36,0.00,,---,0.00,VWS V14.01,2013-01-19 08:13:00,
2013-01-19 03:18:00,32.2,8.3,30.28,WSW,258,2.0,16.0,36,0.00,,---,0.00,VWS V14.01,2013-01-19 08:18:00,
2013-01-19 03:23:00,32.2,8.3,30.28,WSW,255,4.0,16.0,36,0.00,,---,0.00,VWS V14.01,2013-01-19 08:23:00,
2013-01-19 03:28:00,32.5,8.5,30.28,WSW,243,6.0,16.0,36,0.00,,---,0.00,VWS V14.01,2013-01-19 08:28:00,
2013-01-19 03:30:00,31.8,7.9,30.30,SW,231,3.0,19.0,36,0.00,,---,0.00,VWS V14.01,2013-01-19 08:30:00,
2013-01-19 03:33:00,32.7,8.7,30.27,West,265,2.0,9.0,36,0.00,,---,0.00,VWS V14.01,2013-01-19 08:33:00,
2013-01-19 03:38:00,32.7,8.7,30.27,SW,229,4.0,11.0,36,0.00,,---,0.00,VWS V14.01,2013-01-19 08:38:00,
2013-01-19 03:43:00,32.8,8.8,30.27,West,262,5.0,19.0,36,0.00,,---,0.00,VWS V14.01,2013-01-19 08:43:00,
2013-01-19 03:48:00,32.9,8.9,30.27,WNW,287,3.0,19.0,36,0.00,,---,0.00,VWS V14.01,2013-01-19 08:48:00,
2013-01-19 03:53:00,33.2,9.1,30.27,WSW,239,7.0,19.0,36,0.00,,---,0.00,VWS V14.01,2013-01-19 08:53:00,
2013-01-19 03:58:00,33.4,9.3,30.27,WSW,246,4.0,19.0,36,0.00,,---,0.00,VWS V14.01,2013-01-19 08:58:00,
2013-01-19 04:00:00,32.2,8.3,30.29,SW,234,10.0,16.0,36,0.00,,---,0.00,VWS V14.01,2013-01-19 09:00:00,
2013-01-19 04:03:00,33.5,9.4,30.27,SW,217,15.0,16.0,36,0.00,,---,0.00,VWS V14.01,2013-01-19 09:03:00,
2013-01-19 04:08:00,33.5,9.4,30.27,WSW,256,9.0,16.0,36,0.00,,---,0.00,VWS V14.01,2013-01-19 09:08:00,
2013-01-19 04:13:00,33.5,9.4,30.27,SW,233,9.0,16.0,36,0.00,,---,0.00,VWS V14.01,2013-01-19 09:13:00,
2013-01-19 04:18:00,33.5,9.4,30.26,SW,214,10.0,16.0,36,0.00,,---,0.00,VWS V14.01,2013-01-19 09:18:00,
2013-01-19 04:23:00,33.4,9.3,30.26,SW,236,3.0,16.0,36,0.00,,---,0.00,VWS V14.01,2013-01-19 09:23:00,
2013-01-19 04:28:00,33.4,9.3,30.26,SW,228,13.0,18.0,36,0.00,,---,0.00,VWS V14.01,2013-01-19 09:28:00,
2013-01-19 04:30:00,32.5,8.5,30.27,SSW,209,4.0,16.0,36,0.00,,---,0.00,VWS V14.01,2013-01-19 09:30:00,
2013-01-19 04:33:00,33.4,9.3,30.25,WSW,246,9.0,13.0,36,0.00,,---,0.00,VWS V14.01,2013-01-19 09:33:00,
2013-01-19 04:38:00,33.5,9.4,30.25,SW,229,6.0,20.0,36,0.00,,---,0.00,VWS V14.01,2013-01-19 09:38:00,
2013-01-19 04:43:00,33.5,9.4,30.25,WSW,238,7.0,20.0,36,0.00,,---,0.00,VWS V14.01,2013-01-19 09:43:00,
2013-01-19 04:48:00,33.7,9.6,30.24,SW,220,5.0,20.0,36,0.00,,---,0.00,VWS V14.01,2013-01-19 09:48:00,
2013-01-19 04:53:00,33.8,9.7,30.24,WSW,252,3.0,20.0,36,0.00,,---,0.00,VWS V14.01,2013-01-19 09:53:00,
2013-01-19 04:58:00,34.0,9.9,30.24,West,264,9.0,20.0,36,0.00,,---,0.00,VWS V14.01,2013-01-19 09:58:00,
2013-01-19 05:00:00,33.4,9.3,30.27,SSW,208,15.0,19.0,36,0.00,,---,0.00,VWS V14.01,2013-01-19 10:00:00,
2013-01-19 05:03:00,34.3,10.1,30.24,WSW,237,10.0,21.0,36,0.00,,---,0.00,VWS V14.01,2013-01-19 10:03:00,
2013-01-19 05:08:00,34.3,10.1,30.24,SW,230,8.0,21.0,36,0.00,,---,0.00,VWS V14.01,2013-01-19 10:08:00,
2013-01-19 05:13:00,34.4,10.2,30.24,SSW,194,17.0,23.0,36,0.00,,---,0.00,VWS V14.01,2013-01-19 10:13:00,
2013-01-19 05:18:00,34.6,10.4,30.24,West,260,7.0,23.0,36,0.00,,---,0.00,VWS V14.01,2013-01-19 10:18:00,
2013-01-19 05:23:00,34.7,10.5,30.24,WSW,245,5.0,23.0,36,0.00,,---,0.00,VWS V14.01,2013-01-19 10:23:00,
2013-01-19 05:28:00,34.7,10.5,30.24,SW,231,9.0,23.0,36,0.00,,---,0.00,VWS V14.01,2013-01-19 10:28:00,
2013-01-19 05:30:00,33.4,9.3,30.25,WSW,254,5.0,18.0,36,0.00,,---,0.00,VWS V14.01,2013-01-19 10:30:00,
2013-01-19 05:33:00,34.9,10.7,30.23,WSW,240,12.0,17.0,36,0.00,,---,0.00,VWS V14.01,2013-01-19 10:33:00,
2013-01-19 05:38:00,35.0,10.8,30.23,SW,227,4.0,17.0,36,0.00,,---,0.00,VWS V14.01,2013-01-19 10:38:00,
2013-01-19 05:43:00,35.2,10.9,30.23,WSW,244,9.0,17.0,36,0.00,,---,0.00,VWS V14.01,2013-01-19 10:43:00,
2013-01-19 05:48:00,35.3,11.0,30.23,WNW,283,4.0,20.0,36,0.00,,---,0.00,VWS V14.01,2013-01-19 10:48:00,
2013-01-19 05:53:00,35.5,11.2,30.23,SW,226,4.0,21.0,36,0.00,,---,0.00,VWS V14.01,2013-01-19 10:53:00,
2013-01-19 05:58:00,35.5,11.2,30.23,SW,223,9.0,21.0,36,0.00,,---,0.00,VWS V14.01,2013-01-19 10:58:00,
2013-01-19 06:00:00,34.1,10.0,30.24,SW,230,21.0,21.0,36,0.00,,---,0.00,VWS V14.01,2013-01-19 11:00:00,
2013-01-19 06:03:00,35.6,11.3,30.22,SW,233,12.0,17.0,36,0.00,,---,0.00,VWS V14.01,2013-01-19 11:03:00,
2013-01-19 06:08:00,35.8,11.5,30.22,South,172,10.0,17.0,36,0.00,,---,0.00,VWS V14.01,2013-01-19 11:08:00,
2013-01-19 06:13:00,35.9,11.6,30.22,SSW,206,10.0,20.0,36,0.00,,---,0.00,VWS V14.01,2013-01-19 11:13:00,
2013-01-19 06:30:00,34.7,10.5,30.23,SW,216,12.0,23.0,36,0.00,,---,0.00,VWS V14.01,2013-01-19 11:30:00,
2013-01-19 07:00:00,35.6,11.3,30.22,West,266,9.0,21.0,36,0.00,,---,0.00,VWS V14.01,2013-01-19 12:00:00,
2013-01-19 07:30:00,36.0,11.6,30.22,SW,223,8.0,22.0,36,0.00,,---,0.00,VWS V14.01,2013-01-19 12:30:00,
2013-01-19 07:47:00,37.2,13.3,30.20,SW,236,7.0,21.0,37,0.00,,---,0.00,VWS V14.01,2013-01-19 12:47:00,
2013-01-19 07:48:00,37.3,13.4,30.20,West,277,6.0,21.0,37,0.00,,---,0.00,VWS V14.01,2013-01-19 12:48:00,
2013-01-19 07:53:00,37.5,13.6,30.20,WSW,250,13.0,21.0,37,0.00,,---,0.00,VWS V14.01,2013-01-19 12:53:00,
2013-01-19 07:58:00,37.6,13.7,30.20,SW,221,12.0,21.0,37,0.00,,---,0.00,VWS V14.01,2013-01-19 12:58:00,
2013-01-19 08:00:00,36.6,12.8,30.21,WSW,244,11.0,20.0,37,0.00,,---,0.00,VWS V14.01,2013-01-19 13:00:00,
2013-01-19 08:03:00,37.8,13.9,30.21,WSW,245,6.0,16.0,37,0.00,,---,0.00,VWS V14.01,2013-01-19 13:03:00,
2013-01-19 08:08:00,38.0,14.1,30.21,WNW,285,4.0,23.0,37,0.00,,---,0.00,VWS V14.01,2013-01-19 13:08:00,
2013-01-19 08:13:00,38.2,14.2,30.21,West,262,8.0,23.0,37,0.00,,---,0.00,VWS V14.01,2013-01-19 13:13:00,
2013-01-19 08:18:00,38.5,14.5,30.20,SW,236,4.0,23.0,37,0.00,,---,0.00,VWS V14.01,2013-01-19 13:18:00,
2013-01-19 08:23:00,38.6,14.6,30.20,WSW,241,10.0,23.0,37,0.00,,---,0.00,VWS V14.01,2013-01-19 13:23:00,
2013-01-19 08:28:00,38.9,14.9,30.20,SSW,208,14.0,23.0,37,0.00,,---,0.00,VWS V14.01,2013-01-19 13:28:00,
2013-01-19 08:30:00,36.9,13.1,30.21,SSW,207,11.0,20.0,37,0.00,,---,0.00,VWS V14.01,2013-01-19 13:30:00,
2013-01-19 08:33:00,39.1,15.0,30.20,SSW,212,9.0,20.0,37,0.00,,---,0.00,VWS V14.01,2013-01-19 13:33:00,
2013-01-19 08:38:00,39.3,15.2,30.20,WSW,242,8.0,20.0,37,0.00,,---,0.00,VWS V14.01,2013-01-19 13:38:00,
2013-01-19 08:43:00,39.3,15.2,30.20,WSW,257,9.0,20.0,37,0.00,,---,0.00,VWS V14.01,2013-01-19 13:43:00,
2013-01-19 08:48:00,39.5,15.4,30.20,SW,222,14.0,20.0,37,0.00,,---,0.00,VWS V14.01,2013-01-19 13:48:00,
2013-01-19 08:53:00,39.6,15.5,30.20,WSW,256,10.0,26.0,37,0.00,,---,0.00,VWS V14.01,2013-01-19 13:53:00,
2013-01-19 08:58:00,39.8,15.7,30.20,WSW,243,16.0,26.0,37,0.00,,---,0.00,VWS V14.01,2013-01-19 13:58:00,
2013-01-19 09:00:00,37.8,13.9,30.21,SSW,193,2.0,21.0,37,0.00,,---,0.00,VWS V14.01,2013-01-19 14:00:00,
2013-01-19 09:03:00,39.8,15.7,30.20,SSW,195,14.0,14.0,37,0.00,,---,0.00,VWS V14.01,2013-01-19 14:03:00,
2013-01-19 09:08:00,40.1,15.9,30.20,SW,226,10.0,16.0,37,0.00,,---,0.00,VWS V14.01,2013-01-19 14:08:00,
2013-01-19 09:13:00,40.2,15.4,30.20,WSW,257,4.0,16.0,36,0.00,,---,0.00,VWS V14.01,2013-01-19 14:13:00,
2013-01-19 09:18:00,40.2,15.4,30.20,SW,222,20.0,20.0,36,0.00,,---,0.00,VWS V14.01,2013-01-19 14:18:00,
2013-01-19 09:23:00,40.3,15.5,30.20,WSW,255,11.0,20.0,36,0.00,,---,0.00,VWS V14.01,2013-01-19 14:23:00,
2013-01-19 09:28:00,40.5,15.7,30.20,SW,233,15.0,24.0,36,0.00,,---,0.00,VWS V14.01,2013-01-19 14:28:00,
2013-01-19 09:30:00,39.1,15.0,30.20,WSW,247,17.0,23.0,37,0.00,,---,0.00,VWS V14.01,2013-01-19 14:30:00,
2013-01-19 09:33:00,40.6,15.8,30.20,SW,218,10.0,18.0,36,0.00,,---,0.00,VWS V14.01,2013-01-19 14:33:00,
2013-01-19 09:38:00,40.8,15.9,30.20,WSW,258,13.0,20.0,36,0.00,,---,0.00,VWS V14.01,2013-01-19 14:38:00,
2013-01-19 09:43:00,41.1,16.2,30.20,SW,235,12.0,21.0,36,0.00,,---,0.00,VWS V14.01,2013-01-19 14:43:00,
2013-01-19 09:48:00,41.2,16.3,30.19,SW,231,9.0,21.0,36,0.00,,---,0.00,VWS V14.01,2013-01-19 14:48:00,
2013-01-19 09:53:00,41.2,16.3,30.19,WSW,237,12.0,26.0,36,0.00,,---,0.00,VWS V14.01,2013-01-19 14:53:00,
2013-01-19 09:58:00,41.2,16.3,30.19,SW,229,20.0,26.0,36,0.00,,---,0.00,VWS V14.01,2013-01-19 14:58:00,
2013-01-19 10:00:00,39.8,15.7,30.20,WNW,288,6.0,26.0,37,0.00,,---,0.00,VWS V14.01,2013-01-19 15:00:00,
2013-01-19 10:03:00,41.3,16.4,30.19,WNW,290,20.0,20.0,36,0.00,,---,0.00,VWS V14.01,2013-01-19 15:03:00,
2013-01-19 10:08:00,41.6,16.6,30.19,West,269,7.0,26.0,36,0.00,,---,0.00,VWS V14.01,2013-01-19 15:08:00,
2013-01-19 10:13:00,41.8,16.8,30.19,SSW,196,20.0,26.0,36,0.00,,---,0.00,VWS V14.01,2013-01-19 15:13:00,
2013-01-19 10:18:00,41.8,16.8,30.18,WSW,257,5.0,26.0,36,0.00,,---,0.00,VWS V14.01,2013-01-19 15:18:00,
2013-01-19 10:23:00,41.8,16.8,30.18,SW,228,10.0,26.0,36,0.00,,---,0.00,VWS V14.01,2013-01-19 15:23:00,
2013-01-19 10:28:00,41.8,16.8,30.18,WSW,245,5.0,26.0,36,0.00,,---,0.00,VWS V14.01,2013-01-19 15:28:00,
2013-01-19 10:30:00,40.6,15.8,30.20,West,281,12.0,24.0,36,0.00,,---,0.00,VWS V14.01,2013-01-19 15:30:00,
2013-01-19 10:33:00,41.9,16.9,30.17,WSW,255,14.0,23.0,36,0.00,,---,0.00,VWS V14.01,2013-01-19 15:33:00,
2013-01-19 10:38:00,42.2,17.2,30.17,West,262,8.0,23.0,36,0.00,,---,0.00,VWS V14.01,2013-01-19 15:38:00,
2013-01-19 10:43:00,42.2,17.2,30.17,West,268,9.0,23.0,36,0.00,,---,0.00,VWS V14.01,2013-01-19 15:43:00,
2013-01-19 10:48:00,42.3,17.3,30.16,SW,217,24.0,25.0,36,0.00,,---,0.00,VWS V14.01,2013-01-19 15:48:00,
2013-01-19 10:53:00,42.3,17.3,30.16,SW,226,12.0,25.0,36,0.00,,---,0.00,VWS V14.01,2013-01-19 15:53:00,
2013-01-19 10:58:00,42.5,17.4,30.16,WNW,287,9.0,25.0,36,0.00,,---,0.00,VWS V14.01,2013-01-19 15:58:00,
2013-01-19 11:00:00,41.2,16.3,30.19,SW,228,19.0,26.0,36,0.00,,---,0.00,VWS V14.01,2013-01-19 16:00:00,
2013-01-19 11:03:00,42.8,17.7,30.15,WSW,240,13.0,22.0,36,0.00,,---,0.00,VWS V14.01,2013-01-19 16:03:00,
2013-01-19 11:08:00,42.8,17.7,30.15,West,261,7.0,23.0,36,0.00,,---,0.00,VWS V14.01,2013-01-19 16:08:00,
2013-01-19 11:13:00,42.9,17.1,30.15,West,266,13.0,23.0,35,0.00,,---,0.00,VWS V14.01,2013-01-19 16:13:00,
2013-01-19 11:18:00,43.1,18.0,30.13,WSW,243,23.0,25.0,36,0.00,,---,0.00,VWS V14.01,2013-01-19 16:18:00,
2013-01-19 11:23:00,43.3,17.5,30.13,SW,231,9.0,25.0,35,0.00,,---,0.00,VWS V14.01,2013-01-19 16:23:00,
2013-01-19 11:28:00,43.3,17.5,30.13,SW,232,20.0,26.0,35,0.00,,---,0.00,VWS V14.01,2013-01-19 16:28:00,
2013-01-19 11:30:00,41.9,16.9,30.17,SW,233,14.0,26.0,36,0.00,,---,0.00,VWS V14.01,2013-01-19 16:30:00,
2013-01-19 11:33:00,43.2,17.4,30.12,SSW,197,14.0,25.0,35,0.00,,---,0.00,VWS V14.01,2013-01-19 16:33:00,
2013-01-19 11:38:00,43.5,17.7,30.12,SW,220,11.0,28.0,35,0.00,,---,0.00,VWS V14.01,2013-01-19 16:38:00,
2013-01-19 11:43:00,43.3,17.5,30.12,SW,236,13.0,30.0,35,0.00,,---,0.00,VWS V14.01,2013-01-19 16:43:00,
2013-01-19 11:48:00,43.3,17.5,30.11,West,265,4.0,30.0,35,0.00,,---,0.00,VWS V14.01,2013-01-19 16:48:00,
2013-01-19 11:53:00,43.6,17.8,30.11,SW,230,9.0,30.0,35,0.00,,---,0.00,VWS V14.01,2013-01-19 16:53:00,
2013-01-19 11:58:00,43.8,18.0,30.11,WNW,288,5.0,30.0,35,0.00,,---,0.00,VWS V14.01,2013-01-19 16:58:00,
2013-01-19 12:00:00,42.8,17.7,30.15,SW,221,14.0,25.0,36,0.00,,---,0.00,VWS V14.01,2013-01-19 17:00:00,
2013-01-19 12:03:00,44.1,18.2,30.10,SW,223,5.0,16.0,35,0.00,,---,0.00,VWS V14.01,2013-01-19 17:03:00,
2013-01-19 12:08:00,44.1,18.2,30.10,West,274,4.0,18.0,35,0.00,,---,0.00,VWS V14.01,2013-01-19 17:08:00,
2013-01-19 12:13:00,44.1,18.2,30.10,SSW,195,16.0,24.0,35,0.00,,---,0.00,VWS V14.01,2013-01-19 17:13:00,
2013-01-19 12:19:00,44.1,18.2,30.08,West,273,13.0,24.0,35,0.00,,---,0.00,VWS V14.01,2013-01-19 17:19:00,
2013-01-19 12:24:00,44.2,18.3,30.08,SW,228,14.0,24.0,35,0.00,,---,0.00,VWS V14.01,2013-01-19 17:24:00,
2013-01-19 12:29:00,44.2,18.3,30.08,SW,236,12.0,24.0,35,0.00,,---,0.00,VWS V14.01,2013-01-19 17:29:00,
2013-01-19 12:30:00,43.3,17.5,30.12,SW,220,19.0,26.0,35,0.00,,---,0.00,VWS V14.01,2013-01-19 17:30:00,
2013-01-19 12:34:00,44.1,18.2,30.07,West,278,2.0,16.0,35,0.00,,---,0.00,VWS V14.01,2013-01-19 17:34:00,
2013-01-19 12:39:00,44.1,18.2,30.07,SW,219,13.0,18.0,35,0.00,,---,0.00,VWS V14.01,2013-01-19 17:39:00,
2013-01-19 12:44:00,44.1,18.2,30.07,West,264,4.0,18.0,35,0.00,,---,0.00,VWS V14.01,2013-01-19 17:44:00,
2013-01-19 12:49:00,44.1,18.2,30.06,WSW,243,9.0,18.0,35,0.00,,---,0.00,VWS V14.01,2013-01-19 17:49:00,
2013-01-19 12:54:00,44.2,19.0,30.06,WSW,244,17.0,18.0,36,0.00,,---,0.00,VWS V14.01,2013-01-19 17:54:00,
2013-01-19 12:59:00,44.1,18.2,30.06,WSW,252,13.0,23.0,35,0.00,,---,0.00,VWS V14.01,2013-01-19 17:59:00,
2013-01-19 13:00:00,43.9,18.0,30.10,WSW,242,10.0,30.0,35,0.00,,---,0.00,VWS V14.01,2013-01-19 18:00:00,
2013-01-19 13:04:00,44.2,18.3,30.05,SW,215,21.0,21.0,35,0.00,,---,0.00,VWS V14.01,2013-01-19 18:04:00,
2013-01-19 13:09:00,44.1,18.2,30.05,West,269,4.0,22.0,35,0.00,,---,0.00,VWS V14.01,2013-01-19 18:09:00,
2013-01-19 13:14:00,44.3,18.4,30.05,SW,226,14.0,22.0,35,0.00,,---,0.00,VWS V14.01,2013-01-19 18:14:00,
2013-01-19 13:19:00,44.5,18.6,30.05,South,172,4.0,22.0,35,0.00,,---,0.00,VWS V14.01,2013-01-19 18:19:00,
2013-01-19 13:24:00,44.5,18.6,30.05,SW,217,15.0,22.0,35,0.00,,---,0.00,VWS V14.01,2013-01-19 18:24:00,
2013-01-19 13:30:00,44.5,18.6,30.04,West,262,14.0,22.0,35,0.00,,---,0.00,VWS V14.01,2013-01-19 18:30:00,
2013-01-19 13:35:00,44.5,18.6,30.04,SW,219,8.0,19.0,35,0.00,,---,0.00,VWS V14.01,2013-01-19 18:35:00,
2013-01-19 13:40:00,44.6,18.7,30.04,West,261,6.0,23.0,35,0.00,,---,0.00,VWS V14.01,2013-01-19 18:40:00,
2013-01-19 13:45:00,44.6,18.7,30.03,WNW,300,6.0,23.0,35,0.00,,---,0.00,VWS V14.01,2013-01-19 18:45:00,
2013-01-19 13:50:00,45.1,19.1,30.03,SW,218,16.0,23.0,35,0.00,,---,0.00,VWS V14.01,2013-01-19 18:50:00,
2013-01-19 13:55:00,45.1,19.1,30.03,WSW,242,7.0,25.0,35,0.00,,---,0.00,VWS V14.01,2013-01-19 18:55:00,
2013-01-19 14:00:00,45.4,19.4,30.02,WNW,295,1.0,25.0,35,0.00,,---,0.00,VWS V14.01,2013-01-19 19:00:00,
2013-01-19 14:05:00,45.2,19.2,30.02,WSW,239,9.0,22.0,35,0.00,,---,0.00,VWS V14.01,2013-01-19 19:05:00,
2013-01-19 14:10:00,44.9,19.6,30.02,WSW,238,10.0,26.0,36,0.00,,---,0.00,VWS V14.01,2013-01-19 19:10:00,
2013-01-19 14:15:00,44.9,19.6,30.02,South,176,6.0,26.0,36,0.00,,---,0.00,VWS V14.01,2013-01-19 19:15:00,
2013-01-19 14:20:00,44.8,19.5,30.02,SW,226,11.0,26.0,36,0.00,,---,0.00,VWS V14.01,2013-01-19 19:20:00,
2013-01-19 14:25:00,44.8,19.5,30.02,WSW,243,17.0,26.0,36,0.00,,---,0.00,VWS V14.01,2013-01-19 19:25:00,
2013-01-19 14:30:00,44.8,19.5,30.01,West,259,5.0,26.0,36,0.00,,---,0.00,VWS V14.01,2013-01-19 19:30:00,
2013-01-19 14:35:00,44.8,19.5,30.01,SSW,203,15.0,15.0,36,0.00,,---,0.00,VWS V14.01,2013-01-19 19:35:00,
2013-01-19 14:41:00,44.8,19.5,30.01,SW,219,10.0,22.0,36,0.00,,---,0.00,VWS V14.01,2013-01-19 19:41:00,
2013-01-19 14:46:00,44.8,19.5,30.00,SW,219,10.0,22.0,36,0.00,,---,0.00,VWS V14.01,2013-01-19 19:46:00,
2013-01-19 14:51:00,44.9,19.6,30.00,SW,222,7.0,22.0,36,0.00,,---,0.00,VWS V14.01,2013-01-19 19:51:00,
2013-01-19 14:56:00,45.1,19.8,30.00,SSW,193,9.0,22.0,36,0.00,,---,0.00,VWS V14.01,2013-01-19 19:56:00,
2013-01-19 15:00:00,45.4,19.4,30.02,West,264,7.0,25.0,35,0.00,,---,0.00,VWS V14.01,2013-01-19 20:00:00,
2013-01-19 15:02:00,45.1,19.8,30.00,SW,236,11.0,15.0,36,0.00,,---,0.00,VWS V14.01,2013-01-19 20:02:00,
2013-01-19 15:07:00,45.1,19.8,30.00,WSW,242,9.0,20.0,36,0.00,,---,0.00,VWS V14.01,2013-01-19 20:07:00,
2013-01-19 15:12:00,45.2,19.9,30.00,WSW,248,10.0,22.0,36,0.00,,---,0.00,VWS V14.01,2013-01-19 20:12:00,
2013-01-19 15:17:00,45.2,19.9,30.00,SSW,209,15.0,22.0,36,0.00,,---,0.00,VWS V14.01,2013-01-19 20:17:00,
2013-01-19 15:22:00,45.4,20.0,30.00,WSW,238,15.0,22.0,36,0.00,,---,0.00,VWS V14.01,2013-01-19 20:22:00,
2013-01-19 15:27:00,45.4,20.0,30.00,NW,319,5.0,22.0,36,0.00,,---,0.00,VWS V14.01,2013-01-19 20:27:00,
2013-01-19 15:30:00,44.8,19.5,30.01,SSW,210,4.0,26.0,36,0.00,,---,0.00,VWS V14.01,2013-01-19 20:30:00,
2013-01-19 15:32:00,45.2,19.9,30.00,SSW,211,5.0,7.0,36,0.00,,---,0.00,VWS V14.01,2013-01-19 20:32:00,
2013-01-19 15:37:00,45.2,19.9,30.00,West,271,6.0,16.0,36,0.00,,---,0.00,VWS V14.01,2013-01-19 20:37:00,
2013-01-19 15:42:00,45.2,19.9,30.00,WSW,249,11.0,16.0,36,0.00,,---,0.00,VWS V14.01,2013-01-19 20:42:00,
2013-01-19 15:48:00,45.2,19.9,30.00,WSW,252,11.0,17.0,36,0.00,,---,0.00,VWS V14.01,2013-01-19 20:48:00,
2013-01-19 15:53:00,45.1,19.8,30.00,West,262,10.0,17.0,36,0.00,,---,0.00,VWS V14.01,2013-01-19 20:53:00,
2013-01-19 15:58:00,45.1,19.8,30.00,SSW,202,14.0,17.0,36,0.00,,---,0.00,VWS V14.01,2013-01-19 20:58:00,
2013-01-19 16:00:00,45.1,19.8,30.00,WSW,255,10.0,22.0,36,0.00,,---,0.00,VWS V14.01,2013-01-19 21:00:00,
2013-01-19 16:03:00,45.1,19.8,29.99,SW,214,6.0,13.0,36,0.00,,---,0.00,VWS V14.01,2013-01-19 21:03:00,
2013-01-19 16:09:00,45.1,19.8,29.99,SW,224,11.0,17.0,36,0.00,,---,0.00,VWS V14.01,2013-01-19 21:09:00,
2013-01-19 16:14:00,44.9,19.6,29.99,SSW,212,6.0,17.0,36,0.00,,---,0.00,VWS V14.01,2013-01-19 21:14:00,
2013-01-19 16:19:00,44.8,19.5,29.99,WSW,238,11.0,17.0,36,0.00,,---,0.00,VWS V14.01,2013-01-19 21:19:00,
2013-01-19 16:24:00,44.6,19.3,29.99,SW,230,4.0,17.0,36,0.00,,---,0.00,VWS V14.01,2013-01-19 21:24:00,
2013-01-19 16:29:00,44.3,19.0,29.99,SSW,210,10.0,17.0,36,0.00,,---,0.00,VWS V14.01,2013-01-19 21:29:00,
2013-01-19 16:30:00,45.2,19.9,30.00,SSW,202,7.0,22.0,36,0.00,,---,0.00,VWS V14.01,2013-01-19 21:30:00,
2013-01-19 16:34:00,44.2,19.0,29.99,SW,227,4.0,12.0,36,0.00,,---,0.00,VWS V14.01,2013-01-19 21:34:00,
2013-01-19 16:39:00,44.2,19.6,29.99,SSW,206,7.0,15.0,37,0.00,,---,0.00,VWS V14.01,2013-01-19 21:39:00,
2013-01-19 16:44:00,44.1,19.5,29.99,WSW,250,6.0,15.0,37,0.00,,---,0.00,VWS V14.01,2013-01-19 21:44:00,
2013-01-19 16:49:00,43.8,19.2,29.98,WSW,237,5.0,15.0,37,0.00,,---,0.00,VWS V14.01,2013-01-19 21:49:00,
2013-01-19 16:55:00,43.8,19.2,29.98,SSW,207,6.0,15.0,37,0.00,,---,0.00,VWS V14.01,2013-01-19 21:55:00,
2013-01-19 17:00:00,43.6,19.1,29.98,WSW,250,1.0,15.0,37,0.00,,---,0.00,VWS V14.01,2013-01-19 22:00:00,
2013-01-19 17:05:00,43.5,19.0,29.98,SW,233,8.0,11.0,37,0.00,,---,0.00,VWS V14.01,2013-01-19 22:05:00,
2013-01-19 17:10:00,43.6,19.1,29.98,SW,224,3.0,11.0,37,0.00,,---,0.00,VWS V14.01,2013-01-19 22:10:00,
2013-01-19 17:15:00,43.6,19.1,29.98,SW,231,5.0,11.0,37,0.00,,---,0.00,VWS V14.01,2013-01-19 22:15:00,
2013-01-19 17:20:00,43.6,19.1,29.98,SW,217,10.0,12.0,37,0.00,,---,0.00,VWS V14.01,2013-01-19 22:20:00,
2013-01-19 17:25:00,43.8,19.2,29.98,SW,236,6.0,12.0,37,0.00,,---,0.00,VWS V14.01,2013-01-19 22:25:00,
2013-01-19 17:30:00,43.8,19.2,29.98,WSW,242,8.0,15.0,37,0.00,,---,0.00,VWS V14.01,2013-01-19 22:30:00,
2013-01-19 17:35:00,43.8,19.2,29.98,SW,218,5.0,15.0,37,0.00,,---,0.00,VWS V14.01,2013-01-19 22:35:00,
2013-01-19 17:40:00,43.6,19.1,29.98,West,275,4.0,15.0,37,0.00,,---,0.00,VWS V14.01,2013-01-19 22:40:00,
2013-01-19 17:45:00,43.6,19.1,29.98,SSW,209,3.0,15.0,37,0.00,,---,0.00,VWS V14.01,2013-01-19 22:45:00,
2013-01-19 17:50:00,43.6,19.1,29.98,WSW,240,9.0,16.0,37,0.00,,---,0.00,VWS V14.01,2013-01-19 22:50:00,
2013-01-19 17:55:00,43.6,19.1,29.98,SSW,201,2.0,16.0,37,0.00,,---,0.00,VWS V14.01,2013-01-19 22:55:00,
2013-01-19 18:00:00,43.5,19.0,29.98,SW,222,15.0,16.0,37,0.00,,---,0.00,VWS V14.01,2013-01-19 23:00:00,
2013-01-19 18:06:00,43.5,19.0,29.98,SW,216,11.0,16.0,37,0.00,,---,0.00,VWS V14.01,2013-01-19 23:06:00,
2013-01-19 18:11:00,43.6,19.1,29.98,SSW,209,6.0,16.0,37,0.00,,---,0.00,VWS V14.01,2013-01-19 23:11:00,
2013-01-19 18:17:00,43.5,19.0,29.98,WSW,242,5.0,16.0,37,0.00,,---,0.00,VWS V14.01,2013-01-19 23:17:00,
2013-01-19 18:22:00,43.5,19.0,29.98,SW,219,4.0,16.0,37,0.00,,---,0.00,VWS V14.01,2013-01-19 23:22:00,
2013-01-19 18:28:00,43.5,19.0,29.98,SW,236,7.0,16.0,37,0.00,,---,0.00,VWS V14.01,2013-01-19 23:28:00,
2013-01-19 18:30:00,43.8,19.2,29.98,West,259,7.0,15.0,37,0.00,,---,0.00,VWS V14.01,2013-01-19 23:30:00,
2013-01-19 18:33:00,43.5,19.0,29.98,SW,218,4.0,13.0,37,0.00,,---,0.00,VWS V14.01,2013-01-19 23:33:00,
2013-01-19 18:38:00,43.5,19.0,29.98,SSW,207,6.0,14.0,37,0.00,,---,0.00,VWS V14.01,2013-01-19 23:38:00,
2013-01-19 18:43:00,43.5,19.0,29.98,WSW,240,12.0,14.0,37,0.00,,---,0.00,VWS V14.01,2013-01-19 23:43:00,
2013-01-19 18:48:00,43.3,18.8,29.97,SW,219,9.0,15.0,37,0.00,,---,0.00,VWS V14.01,2013-01-19 23:48:00,
2013-01-19 18:53:00,43.3,18.8,29.97,WSW,241,11.0,15.0,37,0.00,,---,0.00,VWS V14.01,2013-01-19 23:53:00,
2013-01-19 18:58:00,43.2,18.7,29.97,WSW,245,6.0,15.0,37,0.00,,---,0.00,VWS V14.01,2013-01-19 23:58:00,
2013-01-19 19:00:00,43.5,19.0,29.98,West,261,16.0,16.0,37,0.00,,---,0.00,VWS V14.01,2013-01-20 00:00:00,
2013-01-19 19:03:00,43.2,18.7,29.97,SW,219,7.0,14.0,37,0.00,,---,0.00,VWS V14.01,2013-01-20 00:03:00,
2013-01-19 19:08:00,43.1,18.6,29.97,SW,227,10.0,14.0,37,0.00,,---,0.00,VWS V14.01,2013-01-20 00:08:00,
2013-01-19 19:13:00,43.1,18.6,29.97,South,179,6.0,14.0,37,0.00,,---,0.00,VWS V14.01,2013-01-20 00:13:00,
2013-01-19 19:18:00,43.1,18.6,29.97,SW,232,6.0,15.0,37,0.00,,---,0.00,VWS V14.01,2013-01-20 00:18:00,
2013-01-19 19:23:00,42.9,18.4,29.97,SW,221,6.0,15.0,37,0.00,,---,0.00,VWS V14.01,2013-01-20 00:23:00,
2013-01-19 19:28:00,42.9,18.4,29.97,WSW,258,4.0,15.0,37,0.00,,---,0.00,VWS V14.01,2013-01-20 00:28:00,
2013-01-19 19:30:00,43.5,19.0,29.98,SW,233,11.0,16.0,37,0.00,,---,0.00,VWS V14.01,2013-01-20 00:30:00,
2013-01-19 19:33:00,42.9,18.4,29.97,WSW,243,10.0,15.0,37,0.00,,---,0.00,VWS V14.01,2013-01-20 00:33:00,
2013-01-19 19:39:00,42.9,18.4,29.97,SW,222,4.0,15.0,37,0.00,,---,0.00,VWS V14.01,2013-01-20 00:39:00,
2013-01-19 19:44:00,42.8,18.4,29.97,SW,226,7.0,15.0,37,0.00,,---,0.00,VWS V14.01,2013-01-20 00:44:00,
2013-01-19 19:49:00,42.8,18.4,29.96,WSW,240,7.0,15.0,37,0.00,,---,0.00,VWS V14.01,2013-01-20 00:49:00,
2013-01-19 19:54:00,42.8,18.4,29.96,SW,236,5.0,15.0,37,0.00,,---,0.00,VWS V14.01,2013-01-20 00:54:00,
2013-01-19 19:59:00,42.6,18.8,29.96,SSW,207,4.0,15.0,38,0.00,,---,0.00,VWS V14.01,2013-01-20 00:59:00,
2013-01-19 20:00:00,43.2,18.7,29.97,WSW,248,10.0,15.0,37,0.00,,---,0.00,VWS V14.01,2013-01-20 01:00:00,
2013-01-19 20:04:00,42.5,18.7,29.96,SW,236,2.0,6.0,38,0.00,,---,0.00,VWS V14.01,2013-01-20 01:04:00,
2013-01-19 20:09:00,42.3,18.5,29.96,WSW,238,3.0,9.0,38,0.00,,---,0.00,VWS V14.01,2013-01-20 01:09:00,
2013-01-19 20:14:00,42.3,18.5,29.96,West,266,2.0,9.0,38,0.00,,---,0.00,VWS V14.01,2013-01-20 01:14:00,
2013-01-19 20:19:00,42.3,18.5,29.95,SW,231,4.0,9.0,38,0.00,,---,0.00,VWS V14.01,2013-01-20 01:19:00,
2013-01-19 20:24:00,42.2,18.4,29.95,SSW,200,1.0,9.0,38,0.00,,---,0.00,VWS V14.01,2013-01-20 01:24:00,
2013-01-19 20:29:00,42.2,18.4,29.95,SW,225,3.0,9.0,38,0.00,,---,0.00,VWS V14.01,2013-01-20 01:29:00,
2013-01-19 20:30:00,42.9,18.4,29.97,SSW,213,5.0,15.0,37,0.00,,---,0.00,VWS V14.01,2013-01-20 01:30:00,
2013-01-19 20:34:00,42.1,18.3,29.94,SW,216,4.0,6.0,38,0.00,,---,0.00,VWS V14.01,2013-01-20 01:34:00,
2013-01-19 20:39:00,42.1,18.3,29.94,WSW,240,4.0,8.0,38,0.00,,---,0.00,VWS V14.01,2013-01-20 01:39:00,
2013-01-19 20:44:00,41.9,18.2,29.94,SW,225,4.0,9.0,38,0.00,,---,0.00,VWS V14.01,2013-01-20 01:44:00,
2013-01-19 20:49:00,41.9,18.2,29.94,WSW,248,3.0,9.0,38,0.00,,---,0.00,VWS V14.01,2013-01-20 01:49:00,
2013-01-19 20:54:00,41.9,18.2,29.94,SW,219,2.0,9.0,38,0.00,,---,0.00,VWS V14.01,2013-01-20 01:54:00,
2013-01-19 21:00:00,41.8,18.1,29.94,SW,217,4.0,9.0,38,0.00,,---,0.00,VWS V14.01,2013-01-20 02:00:00,
2013-01-19 21:05:00,41.8,18.1,29.94,SW,217,2.0,10.0,38,0.00,,---,0.00,VWS V14.01,2013-01-20 02:05:00,
2013-01-19 21:10:00,41.6,17.9,29.94,SW,221,3.0,10.0,38,0.00,,---,0.00,VWS V14.01,2013-01-20 02:10:00,
2013-01-19 21:15:00,41.6,17.9,29.94,SW,216,3.0,10.0,38,0.00,,---,0.00,VWS V14.01,2013-01-20 02:15:00,
2013-01-19 21:20:00,41.8,18.1,29.94,SW,215,3.0,10.0,38,0.00,,---,0.00,VWS V14.01,2013-01-20 02:20:00,
2013-01-19 21:25:00,41.8,18.1,29.94,WSW,241,5.0,11.0,38,0.00,,---,0.00,VWS V14.01,2013-01-20 02:25:00,
2013-01-19 21:30:00,41.8,18.1,29.93,SSW,209,4.0,11.0,38,0.00,,---,0.00,VWS V14.01,2013-01-20 02:30:00,
2013-01-19 21:35:00,41.8,18.1,29.93,SW,232,6.0,10.0,38,0.00,,---,0.00,VWS V14.01,2013-01-20 02:35:00,
2013-01-19 21:40:00,41.9,18.2,29.93,SW,222,2.0,10.0,38,0.00,,---,0.00,VWS V14.01,2013-01-20 02:40:00,
2013-01-19 21:45:00,41.9,18.2,29.93,SW,229,4.0,10.0,38,0.00,,---,0.00,VWS V14.01,2013-01-20 02:45:00,
2013-01-19 21:50:00,41.8,18.1,29.93,WSW,238,3.0,10.0,38,0.00,,---,0.00,VWS V14.01,2013-01-20 02:50:00,
2013-01-19 21:55:00,41.8,18.1,29.93,SSW,210,6.0,10.0,38,0.00,,---,0.00,VWS V14.01,2013-01-20 02:55:00,
2013-01-19 22:00:00,42.1,18.3,29.92,SSW,207,3.0,12.0,38,0.00,,---,0.00,VWS V14.01,2013-01-20 03:00:00,
2013-01-19 22:05:00,42.1,18.3,29.92,SW,216,7.0,10.0,38,0.00,,---,0.00,VWS V14.01,2013-01-20 03:05:00,
2013-01-19 22:11:00,42.3,18.5,29.92,SW,231,4.0,12.0,38,0.00,,---,0.00,VWS V14.01,2013-01-20 03:11:00,
2013-01-19 22:16:00,42.5,18.7,29.91,WSW,237,5.0,12.0,38,0.00,,---,0.00,VWS V14.01,2013-01-20 03:16:00,
2013-01-19 22:21:00,42.6,18.8,29.91,SW,231,3.0,12.0,38,0.00,,---,0.00,VWS V14.01,2013-01-20 03:21:00,
2013-01-19 22:27:00,42.5,18.7,29.91,WSW,250,1.0,12.0,38,0.00,,---,0.00,VWS V14.01,2013-01-20 03:27:00,
2013-01-19 22:30:00,41.8,18.1,29.93,SSW,210,5.0,11.0,38,0.00,,---,0.00,VWS V14.01,2013-01-20 03:30:00,
2013-01-19 22:32:00,42.5,18.7,29.91,West,264,2.0,6.0,38,0.00,,---,0.00,VWS V14.01,2013-01-20 03:32:00,
2013-01-19 22:37:00,42.5,18.7,29.91,SW,232,4.0,9.0,38,0.00,,---,0.00,VWS V14.01,2013-01-20 03:37:00,
2013-01-19 22:42:00,42.5,18.7,29.91,SW,229,4.0,11.0,38,0.00,,---,0.00,VWS V14.01,2013-01-20 03:42:00,
2013-01-19 22:47:00,42.6,18.8,29.90,WSW,252,4.0,11.0,38,0.00,,---,0.00,VWS V14.01,2013-01-20 03:47:00,
2013-01-19 22:52:00,42.8,18.4,29.90,SSW,198,4.0,12.0,37,0.00,,---,0.00,VWS V14.01,2013-01-20 03:52:00,
2013-01-19 22:57:00,42.8,18.4,29.90,SW,232,3.0,12.0,37,0.00,,---,0.00,VWS V14.01,2013-01-20 03:57:00,
2013-01-19 23:00:00,42.1,18.3,29.92,SSW,209,4.0,12.0,38,0.00,,---,0.00,VWS V14.01,2013-01-20 04:00:00,
2013-01-19 23:02:00,42.8,18.4,29.90,SW,219,3.0,9.0,37,0.00,,---,0.00,VWS V14.01,2013-01-20 04:02:00,
2013-01-19 23:07:00,42.9,18.4,29.90,SW,221,3.0,13.0,37,0.00,,---,0.00,VWS V14.01,2013-01-20 04:07:00,
2013-01-19 23:12:00,42.9,18.4,29.90,WSW,238,4.0,13.0,37,0.00,,---,0.00,VWS V14.01,2013-01-20 04:12:00,
2013-01-19 23:17:00,42.9,18.4,29.88,SSW,210,10.0,13.0,37,0.00,,---,0.00,VWS V14.01,2013-01-20 04:17:00,
2013-01-19 23:22:00,43.1,18.6,29.88,WSW,245,4.0,13.0,37,0.00,,---,0.00,VWS V14.01,2013-01-20 04:22:00,
2013-01-19 23:27:00,43.2,18.7,29.88,SW,223,7.0,14.0,37,0.00,,---,0.00,VWS V14.01,2013-01-20 04:27:00,
2013-01-19 23:30:00,42.5,18.7,29.91,SSW,195,6.0,12.0,38,0.00,,---,0.00,VWS V14.01,2013-01-20 04:30:00,
2013-01-19 23:32:00,43.3,18.8,29.87,SW,214,11.0,11.0,37,0.00,,---,0.00,VWS V14.01,2013-01-20 04:32:00,
2013-01-19 23:37:00,43.3,18.8,29.87,SW,231,9.0,11.0,37,0.00,,---,0.00,VWS V14.01,2013-01-20 04:37:00,
2013-01-19 23:42:00,43.5,19.0,29.87,WNW,289,5.0,13.0,37,0.00,,---,0.00,VWS V14.01,2013-01-20 04:42:00,
2013-01-19 23:47:00,43.5,19.0,29.87,SW,218,5.0,18.0,37,0.00,,---,0.00,VWS V14.01,2013-01-20 04:47:00,
2013-01-19 23:52:00,43.5,19.0,29.87,WSW,238,10.0,18.0,37,0.00,,---,0.00,VWS V14.01,2013-01-20 04:52:00,
2013-01-19 23:58:00,43.5,19.0,29.87,West,270,7.0,18.0,37,0.00,,---,0.00,VWS V14.01,2013-01-20 04:58:00,